sensor_id;sensor_type;location;lat;lon;timestamp;P1;durP1;ratioP1;P2;durP2;ratioP2
52186;SDS011;38161;53.020;6.598;2024-03-06T00:00:09;18.50;;;9.80;;
52186;SDS011;38161;53.020;6.598;2024-03-06T00:02:35;19.70;;;10.20;;
52186;SDS011;38161;53.020;6.598;2024-03-06T00:05:01;17.17;;;9.77;;
52186;SDS011;38161;53.020;6.598;2024-03-06T00:07:28;21.02;;;10.63;;
52186;SDS011;38161;53.020;6.598;2024-03-06T00:09:53;19.50;;;10.10;;
52186;SDS011;38161;53.020;6.598;2024-03-06T00:12:19;18.63;;;10.53;;
52186;SDS011;38161;53.020;6.598;2024-03-06T00:14:45;18.97;;;10.33;;
52186;SDS011;38161;53.020;6.598;2024-03-06T00:17:11;16.35;;;10.02;;
52186;SDS011;38161;53.020;6.598;2024-03-06T00:19:37;19.40;;;9.73;;
52186;SDS011;38161;53.020;6.598;2024-03-06T00:22:02;17.85;;;9.98;;
52186;SDS011;38161;53.020;6.598;2024-03-06T00:24:28;19.98;;;9.48;;
52186;SDS011;38161;53.020;6.598;2024-03-06T00:26:54;17.27;;;9.88;;
52186;SDS011;38161;53.020;6.598;2024-03-06T00:29:20;17.47;;;10.27;;
52186;SDS011;38161;53.020;6.598;2024-03-06T00:31:46;17.13;;;10.70;;
52186;SDS011;38161;53.020;6.598;2024-03-06T00:34:12;19.85;;;10.57;;
52186;SDS011;38161;53.020;6.598;2024-03-06T00:36:41;17.38;;;9.75;;
52186;SDS011;38161;53.020;6.598;2024-03-06T00:39:10;14.82;;;9.23;;
52186;SDS011;38161;53.020;6.598;2024-03-06T00:41:38;15.05;;;9.57;;
52186;SDS011;38161;53.020;6.598;2024-03-06T00:44:04;19.60;;;10.17;;
52186;SDS011;38161;53.020;6.598;2024-03-06T00:46:30;16.40;;;9.68;;
52186;SDS011;38161;53.020;6.598;2024-03-06T00:48:56;15.70;;;9.18;;
52186;SDS011;38161;53.020;6.598;2024-03-06T00:51:22;14.10;;;8.82;;
52186;SDS011;38161;53.020;6.598;2024-03-06T00:53:48;15.45;;;8.82;;
52186;SDS011;38161;53.020;6.598;2024-03-06T00:56:14;17.13;;;9.00;;
52186;SDS011;38161;53.020;6.598;2024-03-06T00:58:40;16.85;;;9.00;;
52186;SDS011;38161;53.020;6.598;2024-03-06T01:01:05;20.90;;;9.30;;
52186;SDS011;38161;53.020;6.598;2024-03-06T01:03:31;16.73;;;9.00;;
52186;SDS011;38161;53.020;6.598;2024-03-06T01:05:57;17.93;;;8.70;;
52186;SDS011;38161;53.020;6.598;2024-03-06T01:08:23;18.20;;;9.48;;
52186;SDS011;38161;53.020;6.598;2024-03-06T01:10:52;15.60;;;9.23;;
52186;SDS011;38161;53.020;6.598;2024-03-06T01:13:19;15.77;;;9.48;;
52186;SDS011;38161;53.020;6.598;2024-03-06T01:15:45;14.18;;;8.85;;
52186;SDS011;38161;53.020;6.598;2024-03-06T01:18:11;16.98;;;9.80;;
52186;SDS011;38161;53.020;6.598;2024-03-06T01:20:37;15.80;;;8.63;;
52186;SDS011;38161;53.020;6.598;2024-03-06T01:23:03;16.03;;;8.90;;
52186;SDS011;38161;53.020;6.598;2024-03-06T01:25:29;17.17;;;9.60;;
52186;SDS011;38161;53.020;6.598;2024-03-06T01:27:55;13.77;;;8.90;;
52186;SDS011;38161;53.020;6.598;2024-03-06T01:30:21;16.47;;;8.30;;
52186;SDS011;38161;53.020;6.598;2024-03-06T01:32:46;17.47;;;8.60;;
52186;SDS011;38161;53.020;6.598;2024-03-06T01:35:12;18.57;;;9.33;;
52186;SDS011;38161;53.020;6.598;2024-03-06T01:37:38;19.03;;;9.67;;
52186;SDS011;38161;53.020;6.598;2024-03-06T01:40:04;14.93;;;8.77;;
52186;SDS011;38161;53.020;6.598;2024-03-06T01:42:30;16.20;;;8.82;;
52186;SDS011;38161;53.020;6.598;2024-03-06T01:44:56;14.80;;;7.80;;
52186;SDS011;38161;53.020;6.598;2024-03-06T01:47:22;18.93;;;9.20;;
52186;SDS011;38161;53.020;6.598;2024-03-06T01:49:48;14.82;;;8.43;;
52186;SDS011;38161;53.020;6.598;2024-03-06T01:52:14;15.70;;;8.85;;
52186;SDS011;38161;53.020;6.598;2024-03-06T01:54:42;18.10;;;8.82;;
52186;SDS011;38161;53.020;6.598;2024-03-06T01:57:09;17.60;;;9.55;;
52186;SDS011;38161;53.020;6.598;2024-03-06T01:59:38;14.63;;;9.20;;
52186;SDS011;38161;53.020;6.598;2024-03-06T02:02:05;20.70;;;9.10;;
52186;SDS011;38161;53.020;6.598;2024-03-06T02:04:32;15.43;;;9.50;;
52186;SDS011;38161;53.020;6.598;2024-03-06T02:06:58;16.40;;;8.95;;
52186;SDS011;38161;53.020;6.598;2024-03-06T02:09:25;21.88;;;8.82;;
52186;SDS011;38161;53.020;6.598;2024-03-06T02:11:51;17.83;;;9.13;;
52186;SDS011;38161;53.020;6.598;2024-03-06T02:14:16;15.73;;;8.60;;
52186;SDS011;38161;53.020;6.598;2024-03-06T02:16:42;15.02;;;8.02;;
52186;SDS011;38161;53.020;6.598;2024-03-06T02:19:08;15.80;;;8.63;;
52186;SDS011;38161;53.020;6.598;2024-03-06T02:21:34;17.70;;;9.63;;
52186;SDS011;38161;53.020;6.598;2024-03-06T02:24:00;15.45;;;9.23;;
52186;SDS011;38161;53.020;6.598;2024-03-06T02:26:26;16.25;;;9.88;;
52186;SDS011;38161;53.020;6.598;2024-03-06T02:28:52;16.50;;;8.75;;
52186;SDS011;38161;53.020;6.598;2024-03-06T02:31:20;18.88;;;9.55;;
52186;SDS011;38161;53.020;6.598;2024-03-06T02:33:47;15.05;;;8.77;;
52186;SDS011;38161;53.020;6.598;2024-03-06T02:38:39;17.70;;;9.00;;
52186;SDS011;38161;53.020;6.598;2024-03-06T02:41:05;14.98;;;8.65;;
52186;SDS011;38161;53.020;6.598;2024-03-06T02:43:32;16.40;;;9.82;;
52186;SDS011;38161;53.020;6.598;2024-03-06T02:45:58;18.38;;;9.90;;
52186;SDS011;38161;53.020;6.598;2024-03-06T02:48:24;19.63;;;9.25;;
52186;SDS011;38161;53.020;6.598;2024-03-06T02:50:50;20.88;;;9.98;;
52186;SDS011;38161;53.020;6.598;2024-03-06T02:53:16;16.48;;;9.20;;
52186;SDS011;38161;53.020;6.598;2024-03-06T02:55:42;16.48;;;8.95;;
52186;SDS011;38161;53.020;6.598;2024-03-06T02:58:07;19.17;;;10.10;;
52186;SDS011;38161;53.020;6.598;2024-03-06T03:00:33;17.15;;;10.10;;
52186;SDS011;38161;53.020;6.598;2024-03-06T03:02:59;15.68;;;9.40;;
52186;SDS011;38161;53.020;6.598;2024-03-06T03:05:25;17.52;;;10.15;;
52186;SDS011;38161;53.020;6.598;2024-03-06T03:07:51;17.30;;;9.50;;
52186;SDS011;38161;53.020;6.598;2024-03-06T03:12:43;15.98;;;9.05;;
52186;SDS011;38161;53.020;6.598;2024-03-06T03:15:10;19.08;;;9.63;;
52186;SDS011;38161;53.020;6.598;2024-03-06T03:17:35;18.10;;;9.17;;
52186;SDS011;38161;53.020;6.598;2024-03-06T03:20:02;15.07;;;9.30;;
52186;SDS011;38161;53.020;6.598;2024-03-06T03:22:46;16.38;;;9.90;;
52186;SDS011;38161;53.020;6.598;2024-03-06T03:25:12;14.53;;;9.37;;
52186;SDS011;38161;53.020;6.598;2024-03-06T03:27:39;19.55;;;9.52;;
52186;SDS011;38161;53.020;6.598;2024-03-06T03:32:34;24.95;;;9.80;;
52186;SDS011;38161;53.020;6.598;2024-03-06T03:35:00;16.38;;;9.95;;
52186;SDS011;38161;53.020;6.598;2024-03-06T03:37:26;15.35;;;9.35;;
52186;SDS011;38161;53.020;6.598;2024-03-06T03:39:52;16.88;;;9.77;;
52186;SDS011;38161;53.020;6.598;2024-03-06T03:42:18;20.38;;;10.07;;
52186;SDS011;38161;53.020;6.598;2024-03-06T03:44:44;15.48;;;8.70;;
52186;SDS011;38161;53.020;6.598;2024-03-06T03:47:10;21.23;;;9.77;;
52186;SDS011;38161;53.020;6.598;2024-03-06T03:49:37;19.10;;;9.35;;
52186;SDS011;38161;53.020;6.598;2024-03-06T03:52:03;19.80;;;10.00;;
52186;SDS011;38161;53.020;6.598;2024-03-06T03:54:29;16.73;;;10.38;;
52186;SDS011;38161;53.020;6.598;2024-03-06T03:56:55;16.40;;;9.90;;
52186;SDS011;38161;53.020;6.598;2024-03-06T03:59:21;21.05;;;10.43;;
52186;SDS011;38161;53.020;6.598;2024-03-06T04:01:47;20.47;;;9.77;;
52186;SDS011;38161;53.020;6.598;2024-03-06T04:04:13;17.45;;;10.10;;
52186;SDS011;38161;53.020;6.598;2024-03-06T04:06:38;19.05;;;10.15;;
52186;SDS011;38161;53.020;6.598;2024-03-06T04:09:04;16.00;;;10.02;;
52186;SDS011;38161;53.020;6.598;2024-03-06T04:11:30;16.77;;;10.80;;
52186;SDS011;38161;53.020;6.598;2024-03-06T04:13:59;19.10;;;10.68;;
52186;SDS011;38161;53.020;6.598;2024-03-06T04:16:25;17.55;;;9.95;;
52186;SDS011;38161;53.020;6.598;2024-03-06T04:18:51;21.77;;;10.52;;
52186;SDS011;38161;53.020;6.598;2024-03-06T04:21:17;15.60;;;10.00;;
52186;SDS011;38161;53.020;6.598;2024-03-06T04:23:43;16.87;;;9.90;;
52186;SDS011;38161;53.020;6.598;2024-03-06T04:26:09;17.70;;;9.77;;
52186;SDS011;38161;53.020;6.598;2024-03-06T04:28:35;16.48;;;10.32;;
52186;SDS011;38161;53.020;6.598;2024-03-06T04:31:01;16.73;;;10.33;;
52186;SDS011;38161;53.020;6.598;2024-03-06T04:33:27;16.63;;;11.27;;
52186;SDS011;38161;53.020;6.598;2024-03-06T04:35:53;16.45;;;10.43;;
52186;SDS011;38161;53.020;6.598;2024-03-06T04:38:18;20.33;;;11.17;;
52186;SDS011;38161;53.020;6.598;2024-03-06T04:40:44;19.80;;;10.15;;
52186;SDS011;38161;53.020;6.598;2024-03-06T04:43:10;18.00;;;10.63;;
52186;SDS011;38161;53.020;6.598;2024-03-06T04:45:36;19.80;;;11.40;;
52186;SDS011;38161;53.020;6.598;2024-03-06T04:48:02;17.25;;;11.00;;
52186;SDS011;38161;53.020;6.598;2024-03-06T04:50:28;19.98;;;11.15;;
52186;SDS011;38161;53.020;6.598;2024-03-06T04:52:54;18.65;;;10.00;;
52186;SDS011;38161;53.020;6.598;2024-03-06T04:55:21;16.23;;;10.07;;
52186;SDS011;38161;53.020;6.598;2024-03-06T04:57:48;18.15;;;10.38;;
52186;SDS011;38161;53.020;6.598;2024-03-06T05:02:40;17.00;;;10.48;;
52186;SDS011;38161;53.020;6.598;2024-03-06T05:05:07;17.10;;;10.80;;
52186;SDS011;38161;53.020;6.598;2024-03-06T05:07:33;16.25;;;10.20;;
52186;SDS011;38161;53.020;6.598;2024-03-06T05:09:59;16.30;;;10.70;;
52186;SDS011;38161;53.020;6.598;2024-03-06T05:12:26;15.85;;;10.27;;
52186;SDS011;38161;53.020;6.598;2024-03-06T05:17:18;15.52;;;9.80;;
52186;SDS011;38161;53.020;6.598;2024-03-06T05:22:12;18.63;;;10.57;;
52186;SDS011;38161;53.020;6.598;2024-03-06T05:24:39;19.70;;;10.77;;
52186;SDS011;38161;53.020;6.598;2024-03-06T05:29:31;16.83;;;9.73;;
52186;SDS011;38161;53.020;6.598;2024-03-06T05:31:57;17.80;;;10.82;;
52186;SDS011;38161;53.020;6.598;2024-03-06T05:34:23;18.30;;;11.20;;
52186;SDS011;38161;53.020;6.598;2024-03-06T05:36:49;21.60;;;11.40;;
52186;SDS011;38161;53.020;6.598;2024-03-06T05:39:15;19.00;;;11.32;;
52186;SDS011;38161;53.020;6.598;2024-03-06T05:41:43;17.42;;;11.38;;
52186;SDS011;38161;53.020;6.598;2024-03-06T05:44:09;21.23;;;12.48;;
52186;SDS011;38161;53.020;6.598;2024-03-06T05:46:35;21.90;;;12.35;;
52186;SDS011;38161;53.020;6.598;2024-03-06T05:49:01;22.55;;;11.75;;
52186;SDS011;38161;53.020;6.598;2024-03-06T05:51:27;19.70;;;11.68;;
52186;SDS011;38161;53.020;6.598;2024-03-06T05:53:53;19.90;;;11.68;;
52186;SDS011;38161;53.020;6.598;2024-03-06T05:56:19;20.13;;;11.50;;
52186;SDS011;38161;53.020;6.598;2024-03-06T05:58:45;23.45;;;12.45;;
52186;SDS011;38161;53.020;6.598;2024-03-06T06:01:17;19.40;;;11.85;;
52186;SDS011;38161;53.020;6.598;2024-03-06T06:03:49;19.27;;;11.88;;
52186;SDS011;38161;53.020;6.598;2024-03-06T06:06:15;18.95;;;11.30;;
52186;SDS011;38161;53.020;6.598;2024-03-06T06:08:41;19.88;;;11.95;;
52186;SDS011;38161;53.020;6.598;2024-03-06T06:11:09;20.02;;;11.60;;
52186;SDS011;38161;53.020;6.598;2024-03-06T06:16:01;20.90;;;11.23;;
52186;SDS011;38161;53.020;6.598;2024-03-06T06:18:28;19.00;;;10.95;;
52186;SDS011;38161;53.020;6.598;2024-03-06T06:20:53;16.25;;;11.10;;
52186;SDS011;38161;53.020;6.598;2024-03-06T06:23:19;18.27;;;11.52;;
52186;SDS011;38161;53.020;6.598;2024-03-06T06:25:45;17.63;;;11.63;;
52186;SDS011;38161;53.020;6.598;2024-03-06T06:28:11;19.63;;;12.03;;
52186;SDS011;38161;53.020;6.598;2024-03-06T06:30:37;17.15;;;10.93;;
52186;SDS011;38161;53.020;6.598;2024-03-06T06:33:03;16.92;;;10.80;;
52186;SDS011;38161;53.020;6.598;2024-03-06T06:35:30;21.20;;;11.75;;
52186;SDS011;38161;53.020;6.598;2024-03-06T06:37:55;21.02;;;11.05;;
52186;SDS011;38161;53.020;6.598;2024-03-06T06:40:21;20.90;;;12.05;;
52186;SDS011;38161;53.020;6.598;2024-03-06T06:42:48;19.30;;;11.97;;
52186;SDS011;38161;53.020;6.598;2024-03-06T06:45:17;19.35;;;11.60;;
52186;SDS011;38161;53.020;6.598;2024-03-06T06:47:44;20.90;;;11.70;;
52186;SDS011;38161;53.020;6.598;2024-03-06T06:50:11;21.90;;;11.68;;
52186;SDS011;38161;53.020;6.598;2024-03-06T06:52:40;24.88;;;11.63;;
52186;SDS011;38161;53.020;6.598;2024-03-06T06:55:09;18.23;;;11.43;;
52186;SDS011;38161;53.020;6.598;2024-03-06T06:57:37;19.05;;;11.70;;
52186;SDS011;38161;53.020;6.598;2024-03-06T07:00:03;20.42;;;12.20;;
52186;SDS011;38161;53.020;6.598;2024-03-06T07:02:39;20.08;;;12.00;;
52186;SDS011;38161;53.020;6.598;2024-03-06T07:05:06;23.00;;;12.35;;
52186;SDS011;38161;53.020;6.598;2024-03-06T07:07:33;20.60;;;12.20;;
52186;SDS011;38161;53.020;6.598;2024-03-06T07:09:59;20.38;;;11.35;;
52186;SDS011;38161;53.020;6.598;2024-03-06T07:12:26;23.00;;;12.05;;
52186;SDS011;38161;53.020;6.598;2024-03-06T07:14:52;20.67;;;11.65;;
52186;SDS011;38161;53.020;6.598;2024-03-06T07:17:18;19.35;;;10.85;;
52186;SDS011;38161;53.020;6.598;2024-03-06T07:19:43;20.70;;;11.93;;
52186;SDS011;38161;53.020;6.598;2024-03-06T07:22:09;21.73;;;11.87;;
52186;SDS011;38161;53.020;6.598;2024-03-06T07:24:35;23.08;;;12.32;;
52186;SDS011;38161;53.020;6.598;2024-03-06T07:27:02;20.83;;;12.32;;
52186;SDS011;38161;53.020;6.598;2024-03-06T07:29:28;19.23;;;11.90;;
52186;SDS011;38161;53.020;6.598;2024-03-06T07:31:54;20.92;;;12.63;;
52186;SDS011;38161;53.020;6.598;2024-03-06T07:34:20;20.00;;;12.17;;
52186;SDS011;38161;53.020;6.598;2024-03-06T07:36:48;18.50;;;11.25;;
52186;SDS011;38161;53.020;6.598;2024-03-06T07:39:15;19.77;;;11.43;;
52186;SDS011;38161;53.020;6.598;2024-03-06T07:41:41;21.95;;;11.90;;
52186;SDS011;38161;53.020;6.598;2024-03-06T07:44:07;20.00;;;12.65;;
52186;SDS011;38161;53.020;6.598;2024-03-06T07:49:00;20.45;;;11.43;;
52186;SDS011;38161;53.020;6.598;2024-03-06T07:51:28;20.50;;;11.35;;
52186;SDS011;38161;53.020;6.598;2024-03-06T07:53:55;18.88;;;12.00;;
52186;SDS011;38161;53.020;6.598;2024-03-06T07:56:22;21.58;;;12.00;;
52186;SDS011;38161;53.020;6.598;2024-03-06T07:58:50;23.02;;;12.35;;
52186;SDS011;38161;53.020;6.598;2024-03-06T08:01:16;23.52;;;12.27;;
52186;SDS011;38161;53.020;6.598;2024-03-06T08:03:42;20.40;;;12.65;;
52186;SDS011;38161;53.020;6.598;2024-03-06T08:06:11;19.63;;;12.35;;
52186;SDS011;38161;53.020;6.598;2024-03-06T08:08:42;21.98;;;12.65;;
52186;SDS011;38161;53.020;6.598;2024-03-06T08:11:09;23.00;;;11.85;;
52186;SDS011;38161;53.020;6.598;2024-03-06T08:13:36;20.75;;;12.05;;
52186;SDS011;38161;53.020;6.598;2024-03-06T08:16:03;20.77;;;11.77;;
52186;SDS011;38161;53.020;6.598;2024-03-06T08:18:30;21.05;;;12.05;;
52186;SDS011;38161;53.020;6.598;2024-03-06T08:20:56;21.75;;;12.13;;
52186;SDS011;38161;53.020;6.598;2024-03-06T08:23:22;24.42;;;13.95;;
52186;SDS011;38161;53.020;6.598;2024-03-06T08:25:48;18.63;;;11.88;;
52186;SDS011;38161;53.020;6.598;2024-03-06T08:28:14;19.73;;;12.57;;
52186;SDS011;38161;53.020;6.598;2024-03-06T08:30:40;22.05;;;12.77;;
52186;SDS011;38161;53.020;6.598;2024-03-06T08:33:07;23.42;;;12.25;;
52186;SDS011;38161;53.020;6.598;2024-03-06T08:35:33;19.92;;;12.63;;
52186;SDS011;38161;53.020;6.598;2024-03-06T08:37:59;21.27;;;12.70;;
52186;SDS011;38161;53.020;6.598;2024-03-06T08:40:25;19.15;;;11.90;;
52186;SDS011;38161;53.020;6.598;2024-03-06T08:42:53;21.08;;;12.68;;
52186;SDS011;38161;53.020;6.598;2024-03-06T08:45:19;22.25;;;12.63;;
52186;SDS011;38161;53.020;6.598;2024-03-06T08:47:46;21.55;;;13.27;;
52186;SDS011;38161;53.020;6.598;2024-03-06T08:50:13;24.42;;;12.57;;
52186;SDS011;38161;53.020;6.598;2024-03-06T08:52:39;21.52;;;13.20;;
52186;SDS011;38161;53.020;6.598;2024-03-06T08:57:32;21.00;;;12.65;;
52186;SDS011;38161;53.020;6.598;2024-03-06T08:59:58;21.65;;;12.38;;
52186;SDS011;38161;53.020;6.598;2024-03-06T09:02:24;21.20;;;12.95;;
52186;SDS011;38161;53.020;6.598;2024-03-06T09:04:50;22.33;;;12.50;;
52186;SDS011;38161;53.020;6.598;2024-03-06T09:09:43;24.70;;;12.90;;
52186;SDS011;38161;53.020;6.598;2024-03-06T09:12:09;21.63;;;13.25;;
52186;SDS011;38161;53.020;6.598;2024-03-06T09:14:36;23.88;;;12.68;;
52186;SDS011;38161;53.020;6.598;2024-03-06T09:17:03;23.48;;;13.48;;
52186;SDS011;38161;53.020;6.598;2024-03-06T09:19:29;21.52;;;13.05;;
52186;SDS011;38161;53.020;6.598;2024-03-06T09:21:56;22.48;;;13.05;;
52186;SDS011;38161;53.020;6.598;2024-03-06T09:24:22;26.00;;;14.47;;
52186;SDS011;38161;53.020;6.598;2024-03-06T09:26:50;24.98;;;13.40;;
52186;SDS011;38161;53.020;6.598;2024-03-06T09:29:16;26.67;;;14.57;;
52186;SDS011;38161;53.020;6.598;2024-03-06T09:31:42;24.05;;;15.07;;
52186;SDS011;38161;53.020;6.598;2024-03-06T09:34:08;26.00;;;13.32;;
52186;SDS011;38161;53.020;6.598;2024-03-06T09:36:40;23.95;;;14.20;;
52186;SDS011;38161;53.020;6.598;2024-03-06T09:39:13;24.63;;;14.30;;
52186;SDS011;38161;53.020;6.598;2024-03-06T09:41:45;22.75;;;14.88;;
52186;SDS011;38161;53.020;6.598;2024-03-06T09:44:12;24.40;;;13.90;;
52186;SDS011;38161;53.020;6.598;2024-03-06T09:49:07;25.25;;;14.57;;
52186;SDS011;38161;53.020;6.598;2024-03-06T09:51:35;27.20;;;14.57;;
52186;SDS011;38161;53.020;6.598;2024-03-06T09:54:03;26.00;;;14.75;;
52186;SDS011;38161;53.020;6.598;2024-03-06T09:56:32;24.80;;;15.85;;
52186;SDS011;38161;53.020;6.598;2024-03-06T09:58:59;26.88;;;14.88;;
52186;SDS011;38161;53.020;6.598;2024-03-06T10:01:25;24.05;;;14.55;;
52186;SDS011;38161;53.020;6.598;2024-03-06T10:03:53;23.85;;;14.43;;
52186;SDS011;38161;53.020;6.598;2024-03-06T10:06:18;22.27;;;14.23;;
52186;SDS011;38161;53.020;6.598;2024-03-06T10:11:11;22.73;;;13.98;;
52186;SDS011;38161;53.020;6.598;2024-03-06T10:13:37;25.48;;;14.25;;
52186;SDS011;38161;53.020;6.598;2024-03-06T10:16:04;24.30;;;14.17;;
52186;SDS011;38161;53.020;6.598;2024-03-06T10:18:39;26.20;;;14.60;;
52186;SDS011;38161;53.020;6.598;2024-03-06T10:21:05;24.98;;;14.85;;
52186;SDS011;38161;53.020;6.598;2024-03-06T10:23:31;22.15;;;14.70;;
52186;SDS011;38161;53.020;6.598;2024-03-06T10:25:57;25.15;;;14.65;;
52186;SDS011;38161;53.020;6.598;2024-03-06T10:28:23;23.48;;;14.85;;
52186;SDS011;38161;53.020;6.598;2024-03-06T10:30:50;25.70;;;16.20;;
52186;SDS011;38161;53.020;6.598;2024-03-06T10:33:17;27.70;;;15.15;;
52186;SDS011;38161;53.020;6.598;2024-03-06T10:35:46;31.52;;;15.63;;
52186;SDS011;38161;53.020;6.598;2024-03-06T10:38:13;24.15;;;14.98;;
52186;SDS011;38161;53.020;6.598;2024-03-06T10:40:40;33.45;;;17.27;;
52186;SDS011;38161;53.020;6.598;2024-03-06T10:43:08;24.23;;;15.27;;
52186;SDS011;38161;53.020;6.598;2024-03-06T10:45:47;29.63;;;14.88;;
52186;SDS011;38161;53.020;6.598;2024-03-06T10:48:15;26.33;;;14.80;;
52186;SDS011;38161;53.020;6.598;2024-03-06T10:50:43;25.63;;;15.60;;
52186;SDS011;38161;53.020;6.598;2024-03-06T10:53:10;23.95;;;14.93;;
52186;SDS011;38161;53.020;6.598;2024-03-06T10:55:42;25.13;;;15.15;;
52186;SDS011;38161;53.020;6.598;2024-03-06T10:58:11;24.83;;;14.68;;
52186;SDS011;38161;53.020;6.598;2024-03-06T11:00:39;24.80;;;15.00;;
52186;SDS011;38161;53.020;6.598;2024-03-06T11:03:13;26.00;;;13.98;;
52186;SDS011;38161;53.020;6.598;2024-03-06T11:05:41;26.25;;;15.32;;
52186;SDS011;38161;53.020;6.598;2024-03-06T11:08:11;27.92;;;16.05;;
52186;SDS011;38161;53.020;6.598;2024-03-06T11:10:39;28.45;;;16.52;;
52186;SDS011;38161;53.020;6.598;2024-03-06T11:13:24;25.67;;;16.35;;
52186;SDS011;38161;53.020;6.598;2024-03-06T11:15:51;27.70;;;15.80;;
52186;SDS011;38161;53.020;6.598;2024-03-06T11:23:27;29.48;;;16.60;;
52186;SDS011;38161;53.020;6.598;2024-03-06T11:28:34;32.20;;;16.67;;
52186;SDS011;38161;53.020;6.598;2024-03-06T11:31:04;32.47;;;17.90;;
52186;SDS011;38161;53.020;6.598;2024-03-06T11:33:42;30.40;;;16.40;;
52186;SDS011;38161;53.020;6.598;2024-03-06T11:36:42;27.27;;;16.83;;
52186;SDS011;38161;53.020;6.598;2024-03-06T11:39:03;31.73;;;17.38;;
52186;SDS011;38161;53.020;6.598;2024-03-06T11:44:14;34.70;;;17.60;;
52186;SDS011;38161;53.020;6.598;2024-03-06T11:47:02;27.70;;;16.60;;
52186;SDS011;38161;53.020;6.598;2024-03-06T11:49:31;29.02;;;17.35;;
52186;SDS011;38161;53.020;6.598;2024-03-06T11:52:05;28.48;;;18.23;;
52186;SDS011;38161;53.020;6.598;2024-03-06T11:54:33;30.15;;;17.85;;
52186;SDS011;38161;53.020;6.598;2024-03-06T11:57:00;28.35;;;17.38;;
52186;SDS011;38161;53.020;6.598;2024-03-06T11:59:28;38.90;;;19.08;;
52186;SDS011;38161;53.020;6.598;2024-03-06T12:01:58;31.75;;;17.60;;
52186;SDS011;38161;53.020;6.598;2024-03-06T12:04:32;28.75;;;17.58;;
52186;SDS011;38161;53.020;6.598;2024-03-06T12:07:03;28.80;;;17.52;;
52186;SDS011;38161;53.020;6.598;2024-03-06T12:09:34;31.38;;;17.65;;
52186;SDS011;38161;53.020;6.598;2024-03-06T12:12:01;32.95;;;18.75;;
52186;SDS011;38161;53.020;6.598;2024-03-06T12:17:03;33.50;;;19.55;;
52186;SDS011;38161;53.020;6.598;2024-03-06T12:19:32;30.05;;;18.15;;
52186;SDS011;38161;53.020;6.598;2024-03-06T12:22:02;31.20;;;18.70;;
52186;SDS011;38161;53.020;6.598;2024-03-06T12:24:32;34.75;;;18.83;;
52186;SDS011;38161;53.020;6.598;2024-03-06T12:26:59;31.48;;;19.30;;
52186;SDS011;38161;53.020;6.598;2024-03-06T12:29:27;34.30;;;18.52;;
52186;SDS011;38161;53.020;6.598;2024-03-06T12:31:55;32.25;;;19.15;;
52186;SDS011;38161;53.020;6.598;2024-03-06T12:34:22;35.17;;;19.15;;
52186;SDS011;38161;53.020;6.598;2024-03-06T12:36:48;30.70;;;18.63;;
52186;SDS011;38161;53.020;6.598;2024-03-06T12:39:15;33.65;;;19.60;;
52186;SDS011;38161;53.020;6.598;2024-03-06T12:41:43;29.40;;;18.65;;
52186;SDS011;38161;53.020;6.598;2024-03-06T12:44:10;33.30;;;18.90;;
52186;SDS011;38161;53.020;6.598;2024-03-06T12:46:36;33.37;;;18.63;;
52186;SDS011;38161;53.020;6.598;2024-03-06T12:49:02;33.33;;;19.33;;
52186;SDS011;38161;53.020;6.598;2024-03-06T12:51:27;32.63;;;18.73;;
52186;SDS011;38161;53.020;6.598;2024-03-06T12:53:53;29.98;;;19.25;;
52186;SDS011;38161;53.020;6.598;2024-03-06T12:56:19;34.50;;;18.97;;
52186;SDS011;38161;53.020;6.598;2024-03-06T12:58:45;32.95;;;19.52;;
52186;SDS011;38161;53.020;6.598;2024-03-06T13:01:11;31.73;;;19.63;;
52186;SDS011;38161;53.020;6.598;2024-03-06T13:03:37;33.78;;;21.00;;
52186;SDS011;38161;53.020;6.598;2024-03-06T13:06:03;35.35;;;20.35;;
52186;SDS011;38161;53.020;6.598;2024-03-06T13:08:30;37.08;;;21.20;;
52186;SDS011;38161;53.020;6.598;2024-03-06T13:13:22;34.80;;;20.00;;
52186;SDS011;38161;53.020;6.598;2024-03-06T13:15:53;32.45;;;20.10;;
52186;SDS011;38161;53.020;6.598;2024-03-06T13:18:20;36.03;;;20.17;;
52186;SDS011;38161;53.020;6.598;2024-03-06T13:20:45;34.17;;;21.30;;
52186;SDS011;38161;53.020;6.598;2024-03-06T13:23:12;32.40;;;20.77;;
52186;SDS011;38161;53.020;6.598;2024-03-06T13:25:38;36.30;;;21.30;;
52186;SDS011;38161;53.020;6.598;2024-03-06T13:28:04;34.35;;;21.67;;
52186;SDS011;38161;53.020;6.598;2024-03-06T13:30:30;32.78;;;20.67;;
52186;SDS011;38161;53.020;6.598;2024-03-06T13:32:56;34.22;;;21.10;;
52186;SDS011;38161;53.020;6.598;2024-03-06T13:35:23;32.15;;;19.42;;
52186;SDS011;38161;53.020;6.598;2024-03-06T13:37:49;35.78;;;22.20;;
52186;SDS011;38161;53.020;6.598;2024-03-06T13:40:14;32.58;;;19.88;;
52186;SDS011;38161;53.020;6.598;2024-03-06T13:42:41;32.17;;;20.42;;
52186;SDS011;38161;53.020;6.598;2024-03-06T13:45:08;36.55;;;21.80;;
52186;SDS011;38161;53.020;6.598;2024-03-06T13:47:37;34.35;;;21.98;;
52186;SDS011;38161;53.020;6.598;2024-03-06T13:50:06;32.40;;;20.27;;
52186;SDS011;38161;53.020;6.598;2024-03-06T13:52:35;32.15;;;20.23;;
52186;SDS011;38161;53.020;6.598;2024-03-06T13:55:01;33.97;;;21.30;;
52186;SDS011;38161;53.020;6.598;2024-03-06T13:57:29;32.60;;;20.92;;
52186;SDS011;38161;53.020;6.598;2024-03-06T14:00:00;34.00;;;20.77;;
52186;SDS011;38161;53.020;6.598;2024-03-06T14:02:27;37.55;;;22.88;;
52186;SDS011;38161;53.020;6.598;2024-03-06T14:04:54;30.40;;;20.85;;
52186;SDS011;38161;53.020;6.598;2024-03-06T14:07:20;39.30;;;23.13;;
52186;SDS011;38161;53.020;6.598;2024-03-06T14:09:45;33.30;;;21.60;;
52186;SDS011;38161;53.020;6.598;2024-03-06T14:12:11;39.20;;;22.17;;
52186;SDS011;38161;53.020;6.598;2024-03-06T14:14:37;33.55;;;21.85;;
52186;SDS011;38161;53.020;6.598;2024-03-06T14:17:03;34.60;;;22.30;;
52186;SDS011;38161;53.020;6.598;2024-03-06T14:19:29;36.22;;;22.50;;
52186;SDS011;38161;53.020;6.598;2024-03-06T14:21:55;35.63;;;22.27;;
52186;SDS011;38161;53.020;6.598;2024-03-06T14:24:22;33.08;;;21.13;;
52186;SDS011;38161;53.020;6.598;2024-03-06T14:26:47;37.20;;;20.43;;
52186;SDS011;38161;53.020;6.598;2024-03-06T14:29:14;34.60;;;20.73;;
52186;SDS011;38161;53.020;6.598;2024-03-06T14:31:40;33.70;;;21.40;;
52186;SDS011;38161;53.020;6.598;2024-03-06T14:34:06;33.58;;;20.60;;
52186;SDS011;38161;53.020;6.598;2024-03-06T14:36:32;32.45;;;19.20;;
52186;SDS011;38161;53.020;6.598;2024-03-06T14:38:59;35.60;;;20.25;;
52186;SDS011;38161;53.020;6.598;2024-03-06T14:41:24;34.17;;;19.57;;
52186;SDS011;38161;53.020;6.598;2024-03-06T14:43:50;30.30;;;19.20;;
52186;SDS011;38161;53.020;6.598;2024-03-06T14:46:16;35.00;;;21.30;;
52186;SDS011;38161;53.020;6.598;2024-03-06T14:48:43;36.15;;;20.55;;
52186;SDS011;38161;53.020;6.598;2024-03-06T14:51:09;35.40;;;21.50;;
52186;SDS011;38161;53.020;6.598;2024-03-06T14:53:35;32.33;;;20.98;;
52186;SDS011;38161;53.020;6.598;2024-03-06T14:56:02;32.75;;;19.75;;
52186;SDS011;38161;53.020;6.598;2024-03-06T15:00:53;29.08;;;18.75;;
52186;SDS011;38161;53.020;6.598;2024-03-06T15:03:19;29.10;;;18.25;;
52186;SDS011;38161;53.020;6.598;2024-03-06T15:05:45;33.13;;;19.43;;
52186;SDS011;38161;53.020;6.598;2024-03-06T15:08:11;31.35;;;18.70;;
52186;SDS011;38161;53.020;6.598;2024-03-06T15:10:37;30.17;;;19.30;;